createdAt,value
2018-10-09T00:01:11.649Z,26.73
2018-10-09T00:03:41.753Z,25.40
2018-10-09T00:06:11.691Z,25.40
2018-10-09T00:08:41.704Z,30.30
2018-10-09T00:11:11.728Z,31.70
2018-10-09T00:13:41.879Z,30.07
2018-10-09T00:16:11.665Z,26.30
2018-10-09T00:18:41.278Z,25.97
2018-10-09T00:21:11.303Z,30.93
2018-10-09T00:23:41.038Z,31.80
2018-10-09T00:26:10.766Z,31.33
2018-10-09T00:28:40.626Z,31.93
2018-10-09T00:31:10.282Z,29.00
2018-10-09T00:33:46.795Z,30.30
2018-10-09T00:36:16.626Z,28.73
2018-10-09T00:38:46.357Z,30.33
2018-10-09T00:44:20.997Z,30.10
2018-10-09T00:46:50.870Z,31.33
2018-10-09T00:49:20.525Z,30.93
2018-10-09T00:51:50.202Z,33.17
2018-10-09T00:54:29.579Z,29.57
2018-10-09T00:56:59.381Z,28.93
2018-10-09T00:59:29.089Z,28.77
2018-10-09T01:01:58.693Z,31.57
2018-10-09T01:04:28.546Z,30.57
2018-10-09T01:06:58.218Z,29.10
2018-10-09T01:09:58.756Z,30.03
2018-10-09T01:12:28.533Z,29.10
2018-10-09T01:14:58.454Z,32.60
2018-10-09T01:17:28.382Z,29.10
2018-10-09T01:19:58.122Z,29.63
2018-10-09T01:22:28.291Z,28.03
2018-10-09T01:24:58.001Z,28.17
2018-10-09T01:27:32.711Z,28.23
2018-10-09T01:30:02.985Z,27.57
2018-10-09T01:32:32.666Z,26.60
2018-10-09T01:35:02.398Z,28.10
2018-10-09T01:37:32.117Z,25.60
2018-10-09T01:40:01.894Z,28.23
2018-10-09T01:42:31.690Z,30.87
2018-10-09T01:45:01.498Z,27.63
2018-10-09T01:47:31.399Z,26.10
2018-10-09T01:50:01.202Z,26.67
2018-10-09T01:52:30.901Z,29.57
2018-10-09T01:55:00.728Z,29.50
2018-10-09T01:57:30.458Z,29.47
2018-10-09T02:00:00.337Z,28.20
2018-10-09T02:02:30.133Z,30.60
2018-10-09T02:05:00.159Z,35.00
2018-10-09T02:07:29.950Z,28.23
2018-10-09T02:09:59.630Z,28.50
2018-10-09T02:12:29.333Z,32.30
2018-10-09T02:14:59.034Z,28.70
2018-10-09T02:17:28.785Z,34.40
2018-10-09T02:19:58.587Z,33.00
2018-10-09T02:22:28.214Z,33.30
2018-10-09T02:24:57.888Z,37.10
2018-10-09T02:27:27.701Z,31.20
2018-10-09T02:29:57.370Z,29.47
2018-10-09T02:32:27.082Z,30.43
2018-10-09T02:34:56.790Z,30.40
2018-10-09T02:37:26.501Z,30.47
2018-10-09T02:39:56.222Z,31.70
2018-10-09T02:42:26.169Z,28.50
2018-10-09T02:44:55.988Z,26.97
2018-10-09T02:47:25.689Z,29.93
2018-10-09T02:49:55.369Z,30.80
2018-10-09T02:52:25.047Z,26.80
2018-10-09T02:54:54.711Z,27.43
2018-10-09T02:57:24.465Z,28.70
2018-10-09T02:59:54.174Z,31.87
2018-10-09T03:02:23.913Z,28.93
2018-10-09T03:05:05.605Z,29.33
2018-10-09T03:07:35.698Z,34.17
2018-10-09T03:10:05.622Z,31.47
2018-10-09T03:12:35.319Z,32.20
2018-10-09T03:15:06.146Z,35.33
2018-10-09T03:17:35.930Z,29.90
2018-10-09T03:20:05.706Z,29.33
2018-10-09T03:22:35.347Z,31.87
2018-10-09T03:25:05.248Z,36.23
2018-10-09T03:27:34.937Z,31.50
2018-10-09T03:30:13.031Z,30.47
2018-10-09T03:32:42.802Z,31.43
2018-10-09T03:35:12.513Z,29.77
2018-10-09T03:37:42.314Z,30.87
2018-10-09T03:40:12.362Z,29.60
2018-10-09T03:42:42.521Z,32.50
2018-10-09T03:45:12.267Z,31.60
2018-10-09T03:47:42.446Z,34.30
2018-10-09T03:50:12.298Z,31.07
2018-10-09T03:52:42.210Z,33.00
2018-10-09T03:55:12.021Z,31.90
2018-10-09T03:57:42.214Z,31.97
2018-10-09T04:00:12.012Z,29.13
2018-10-09T04:02:41.817Z,33.67
2018-10-09T04:05:11.454Z,29.03
2018-10-09T04:07:41.503Z,31.77
2018-10-09T04:10:11.169Z,31.33
2018-10-09T04:12:41.053Z,30.83
2018-10-09T04:15:10.804Z,32.63
2018-10-09T04:17:40.629Z,34.67
2018-10-09T04:20:10.366Z,32.10
2018-10-09T04:22:40.175Z,30.57
2018-10-09T04:25:10.362Z,34.20
2018-10-09T04:27:40.042Z,35.20
2018-10-09T04:30:09.762Z,28.83
2018-10-09T04:32:39.455Z,32.33
2018-10-09T04:35:09.111Z,30.50
2018-10-09T04:37:38.819Z,30.00
2018-10-09T04:40:12.281Z,29.43
2018-10-09T04:42:42.614Z,31.97
2018-10-09T04:45:13.147Z,32.97
2018-10-09T04:47:42.814Z,32.83
2018-10-09T04:50:12.457Z,30.70
2018-10-09T04:52:42.231Z,28.30
2018-10-09T04:55:11.906Z,30.40
2018-10-09T04:57:41.566Z,30.63
2018-10-09T05:03:22.378Z,30.23
2018-10-09T05:05:52.120Z,28.67
2018-10-09T05:08:21.830Z,26.93
2018-10-09T05:10:51.602Z,29.87
2018-10-09T05:13:46.125Z,26.93
2018-10-09T05:16:15.849Z,31.93
2018-10-09T05:22:10.211Z,34.10
2018-10-09T05:24:39.854Z,35.90
2018-10-09T05:27:14.913Z,32.43
2018-10-09T05:29:44.654Z,31.53
2018-10-09T05:32:14.297Z,30.43
2018-10-09T05:34:44.065Z,33.83
2018-10-09T05:37:13.729Z,32.17
2018-10-09T05:39:43.358Z,32.77
2018-10-09T05:42:13.056Z,31.20
2018-10-09T05:44:43.052Z,34.77
2018-10-09T05:47:13.127Z,35.10
2018-10-09T05:49:43.102Z,37.07
2018-10-09T05:52:12.790Z,28.53
2018-10-09T05:54:42.425Z,37.30
2018-10-09T05:57:12.066Z,39.27
2018-10-09T05:59:41.849Z,33.73
2018-10-09T06:02:11.889Z,33.57
2018-10-09T06:04:41.501Z,36.70
2018-10-09T06:07:11.153Z,34.50
2018-10-09T06:09:40.829Z,34.53
2018-10-09T06:12:10.620Z,36.40
2018-10-09T06:14:40.299Z,35.50
2018-10-09T06:17:09.941Z,34.63
2018-10-09T06:19:39.641Z,33.03
2018-10-09T06:22:09.286Z,40.40
2018-10-09T06:24:38.938Z,36.17
2018-10-09T06:27:08.617Z,35.07
2018-10-09T06:29:38.321Z,35.57
2018-10-09T06:32:31.250Z,35.40
2018-10-09T06:35:00.960Z,32.33
2018-10-09T06:37:30.566Z,32.57
2018-10-09T06:40:00.157Z,35.37
2018-10-09T06:42:29.817Z,35.03
2018-10-09T06:44:59.497Z,34.20
2018-10-09T06:47:29.270Z,34.67
2018-10-09T06:49:59.153Z,33.87
2018-10-09T06:52:28.913Z,34.33
2018-10-09T06:58:11.617Z,36.43
2018-10-09T07:00:41.447Z,36.27
2018-10-09T07:03:11.226Z,40.53
2018-10-09T07:05:41.673Z,42.17
2018-10-09T07:08:15.587Z,40.50
2018-10-09T07:10:45.335Z,37.23
2018-10-09T07:13:16.008Z,38.57
2018-10-09T07:15:48.248Z,42.63
2018-10-09T07:18:20.247Z,52.67
2018-10-09T07:20:52.863Z,39.13
2018-10-09T07:23:25.187Z,41.77
2018-10-09T07:25:54.951Z,44.87
2018-10-09T07:28:24.663Z,41.13
2018-10-09T07:30:54.634Z,39.23
2018-10-09T07:33:24.263Z,40.47
2018-10-09T07:35:54.059Z,38.40
2018-10-09T07:38:23.895Z,39.07
2018-10-09T07:40:53.938Z,37.73
2018-10-09T07:43:23.633Z,36.20
2018-10-09T07:45:53.322Z,39.27
2018-10-09T07:48:22.926Z,39.33
2018-10-09T07:50:52.719Z,36.80
2018-10-09T07:53:22.310Z,40.90
2018-10-09T07:55:52.083Z,40.17
2018-10-09T07:58:21.980Z,40.37
2018-10-09T08:00:51.703Z,39.83
2018-10-09T08:03:21.533Z,39.67
2018-10-09T08:05:51.220Z,38.30
2018-10-09T08:08:20.982Z,37.40
2018-10-09T08:10:51.462Z,37.57
2018-10-09T08:13:21.275Z,38.53
2018-10-09T08:15:50.967Z,38.20
2018-10-09T08:18:20.731Z,39.10
2018-10-09T08:20:50.408Z,38.67
2018-10-09T08:23:20.114Z,38.57
2018-10-09T08:25:49.943Z,38.47
2018-10-09T08:28:19.603Z,41.00
2018-10-09T08:30:49.237Z,37.90
2018-10-09T08:33:18.927Z,32.63
2018-10-09T08:35:48.574Z,34.07
2018-10-09T08:38:18.197Z,36.53
2018-10-09T08:40:48.079Z,35.50
2018-10-09T08:43:17.711Z,38.30
2018-10-09T08:45:47.681Z,36.83
2018-10-09T08:48:17.398Z,35.13
2018-10-09T08:50:47.118Z,34.43
2018-10-09T08:53:16.951Z,33.40
2018-10-09T08:55:46.998Z,32.30
2018-10-09T08:58:18.404Z,34.87
2018-10-09T09:00:51.755Z,38.33
2018-10-09T09:03:21.375Z,35.13
2018-10-09T09:05:52.227Z,35.23
2018-10-09T09:08:22.278Z,31.27
2018-10-09T09:10:51.999Z,33.90
2018-10-09T09:13:21.783Z,31.47
2018-10-09T09:15:51.750Z,32.07
2018-10-09T09:18:21.456Z,31.20
2018-10-09T09:20:51.114Z,29.13
2018-10-09T09:23:20.677Z,29.80
2018-10-09T09:25:50.419Z,29.10
2018-10-09T09:28:20.218Z,31.90
2018-10-09T09:30:49.819Z,29.80
2018-10-09T09:33:19.523Z,30.17
2018-10-09T09:35:49.127Z,30.50
2018-10-09T09:38:18.865Z,32.33
2018-10-09T09:40:48.818Z,31.67
2018-10-09T09:43:19.510Z,31.57
2018-10-09T09:45:49.783Z,30.77
2018-10-09T09:48:19.446Z,33.37
2018-10-09T09:50:50.994Z,26.00
2018-10-09T09:53:24.217Z,27.50
2018-10-09T09:55:54.327Z,29.17
2018-10-09T09:58:24.094Z,28.73
2018-10-09T10:01:03.059Z,26.60
2018-10-09T10:03:32.539Z,25.27
2018-10-09T10:06:02.087Z,29.67
2018-10-09T10:08:31.437Z,28.83
2018-10-09T10:11:02.166Z,27.77
2018-10-09T10:13:32.529Z,23.80
2018-10-09T10:16:01.906Z,24.63
2018-10-09T10:18:42.497Z,23.73
2018-10-09T10:21:12.054Z,28.63
2018-10-09T10:23:41.339Z,20.63
2018-10-09T10:26:10.749Z,24.37
2018-10-09T10:28:40.239Z,20.53
2018-10-09T10:31:09.645Z,18.27
2018-10-09T10:33:39.035Z,21.63
2018-10-09T10:36:08.830Z,19.77
2018-10-09T10:38:38.193Z,20.27
2018-10-09T10:41:08.062Z,22.77
2018-10-09T10:43:37.537Z,20.20
2018-10-09T10:46:07.258Z,19.80
2018-10-09T10:48:36.696Z,19.93
2018-10-09T10:51:06.017Z,18.30
2018-10-09T10:53:35.833Z,21.23
2018-10-09T10:56:05.324Z,20.03
2018-10-09T10:58:34.649Z,19.90
2018-10-09T11:01:04.110Z,17.90
2018-10-09T11:03:33.433Z,16.80
2018-10-09T11:06:02.989Z,17.23
2018-10-09T11:08:32.501Z,18.83
2018-10-09T11:11:01.885Z,19.10
2018-10-09T11:13:32.173Z,19.97
2018-10-09T11:16:01.551Z,19.20
2018-10-09T11:18:30.932Z,19.73
2018-10-09T11:21:00.434Z,18.67
2018-10-09T11:23:30.155Z,19.43
2018-10-09T11:25:59.538Z,18.60
2018-10-09T11:28:29.041Z,18.27
2018-10-09T11:30:58.401Z,17.13
2018-10-09T11:33:27.771Z,20.80
2018-10-09T11:35:57.146Z,17.10
2018-10-09T11:38:26.462Z,20.70
2018-10-09T11:40:55.901Z,18.60
2018-10-09T11:43:25.469Z,21.47
2018-10-09T11:45:55.367Z,23.20
2018-10-09T11:48:24.907Z,21.07
2018-10-09T11:50:54.355Z,19.50
2018-10-09T11:53:23.673Z,18.97
2018-10-09T11:55:53.393Z,20.23
2018-10-09T11:58:23.308Z,21.23
2018-10-09T12:00:55.093Z,23.37
2018-10-09T12:03:24.569Z,19.60
2018-10-09T12:05:54.056Z,19.60
2018-10-09T12:08:24.216Z,18.67
2018-10-09T12:10:53.618Z,18.02
2018-10-09T12:13:23.149Z,26.05
2018-10-09T12:15:53.254Z,19.75
2018-10-09T12:18:22.721Z,18.65
2018-10-09T12:20:52.033Z,22.77
2018-10-09T12:23:21.434Z,18.90
2018-10-09T12:25:51.205Z,14.98
2018-10-09T12:28:20.545Z,16.35
2018-10-09T12:30:50.112Z,18.12
2018-10-09T12:33:19.511Z,16.17
2018-10-09T12:35:48.942Z,17.35
2018-10-09T12:38:18.305Z,18.07
2018-10-09T12:40:47.876Z,18.27
2018-10-09T12:43:17.184Z,18.32
2018-10-09T12:45:48.372Z,21.37
2018-10-09T12:48:17.685Z,19.40
2018-10-09T12:50:47.476Z,20.15
2018-10-09T12:53:18.381Z,17.45
2018-10-09T12:55:48.240Z,22.80
2018-10-09T12:58:17.674Z,18.15
2018-10-09T13:00:47.882Z,20.00
2018-10-09T13:03:17.194Z,18.17
2018-10-09T13:05:47.561Z,20.43
2018-10-09T13:08:17.046Z,21.45
2018-10-09T13:10:46.602Z,17.73
2018-10-09T13:13:16.217Z,19.05
2018-10-09T13:15:45.722Z,17.77
2018-10-09T13:18:15.528Z,19.20
2018-10-09T13:20:45.632Z,16.48
2018-10-09T13:23:15.026Z,19.37
2018-10-09T13:25:44.494Z,18.23
2018-10-09T13:28:13.800Z,18.77
2018-10-09T13:30:43.492Z,19.27
2018-10-09T13:33:13.081Z,16.85
2018-10-09T13:35:42.520Z,17.92
2018-10-09T13:38:11.999Z,16.42
2018-10-09T13:40:41.301Z,18.37
2018-10-09T13:43:10.597Z,18.67
2018-10-09T13:45:39.926Z,17.70
2018-10-09T13:48:09.565Z,15.98
2018-10-09T13:50:38.918Z,15.10
2018-10-09T13:53:08.332Z,18.85
2018-10-09T13:55:37.697Z,15.20
2018-10-09T13:58:07.164Z,15.93
2018-10-09T14:00:36.553Z,16.65
2018-10-09T14:03:05.965Z,17.17
2018-10-09T14:05:35.327Z,16.17
2018-10-09T14:08:04.757Z,16.65
2018-10-09T14:10:34.185Z,15.88
2018-10-09T14:13:03.586Z,18.77
2018-10-09T14:15:33.125Z,18.05
2018-10-09T14:18:23.586Z,15.28
2018-10-09T14:20:52.942Z,14.63
2018-10-09T14:23:44.601Z,17.27
2018-10-09T14:26:14.133Z,16.90
2018-10-09T14:28:43.670Z,17.40
2018-10-09T14:31:13.236Z,19.12
2018-10-09T14:33:42.653Z,13.70
2018-10-09T14:36:13.370Z,15.80
2018-10-09T14:38:42.709Z,21.93
2018-10-09T14:41:12.626Z,19.90
2018-10-09T14:43:42.163Z,16.77
2018-10-09T14:46:11.572Z,17.17
2018-10-09T14:48:41.125Z,18.17
2018-10-09T14:51:22.897Z,17.87
2018-10-09T14:53:52.665Z,16.52
2018-10-09T14:56:22.333Z,14.78
2018-10-09T14:58:54.380Z,17.07
2018-10-09T15:01:24.814Z,15.08
2018-10-09T15:03:55.202Z,18.67
2018-10-09T15:06:24.817Z,19.12
2018-10-09T15:08:54.186Z,14.75
2018-10-09T15:11:24.971Z,14.47
2018-10-09T15:13:59.089Z,14.33
2018-10-09T15:16:33.185Z,14.23
2018-10-09T15:19:09.451Z,13.65
2018-10-09T15:21:40.202Z,15.75
2018-10-09T15:24:11.268Z,16.17
2018-10-09T15:26:41.385Z,14.98
2018-10-09T15:29:13.304Z,16.97
2018-10-09T15:31:42.973Z,17.12
2018-10-09T15:34:17.315Z,15.60
2018-10-09T15:36:46.978Z,13.53
2018-10-09T15:39:20.939Z,14.20
2018-10-09T15:41:50.398Z,17.12
2018-10-09T15:44:23.769Z,15.60
2018-10-09T15:46:59.476Z,14.00
2018-10-09T15:49:29.082Z,14.40
2018-10-09T15:51:58.706Z,15.70
2018-10-09T15:54:28.307Z,18.50
2018-10-09T15:56:57.915Z,15.17
2018-10-09T15:59:27.575Z,11.97
2018-10-09T16:01:57.254Z,13.33
2018-10-09T16:04:26.910Z,13.23
2018-10-09T16:06:56.623Z,17.40
2018-10-09T16:09:26.275Z,14.83
2018-10-09T16:11:55.931Z,14.70
2018-10-09T16:14:25.922Z,13.97
2018-10-09T16:16:55.651Z,14.83
2018-10-09T16:19:25.352Z,14.97
2018-10-09T16:21:55.041Z,15.07
2018-10-09T16:24:24.710Z,15.17
2018-10-09T16:26:54.116Z,18.47
2018-10-09T16:29:23.489Z,18.70
2018-10-09T16:31:53.227Z,20.10
2018-10-09T16:34:23.113Z,14.33
2018-10-09T16:36:52.712Z,15.33
2018-10-09T16:39:22.530Z,15.50
2018-10-09T16:41:52.305Z,15.57
2018-10-09T16:44:22.008Z,19.00
2018-10-09T16:46:51.663Z,18.37
2018-10-09T16:49:21.337Z,19.60
2018-10-09T16:51:50.995Z,19.10
2018-10-09T16:54:20.679Z,15.80
2018-10-09T16:56:50.377Z,20.27
2018-10-09T16:59:19.993Z,20.00
2018-10-09T17:01:49.983Z,20.57
2018-10-09T17:04:19.847Z,19.40
2018-10-09T17:06:50.680Z,20.50
2018-10-09T17:09:22.746Z,18.57
2018-10-09T17:11:53.353Z,20.73
2018-10-09T17:14:23.668Z,21.27
2018-10-09T17:16:57.182Z,19.67
2018-10-09T17:19:26.803Z,20.03
2018-10-09T17:21:56.467Z,23.13
2018-10-09T17:24:26.172Z,20.43
2018-10-09T17:26:55.926Z,19.43
2018-10-09T17:29:25.493Z,21.50
2018-10-09T17:31:55.264Z,21.00
2018-10-09T17:34:29.484Z,22.40
2018-10-09T17:36:59.123Z,22.43
2018-10-09T17:39:28.784Z,20.57
2018-10-09T17:41:58.558Z,19.20
2018-10-09T17:44:28.446Z,19.60
2018-10-09T17:47:05.253Z,20.83
2018-10-09T17:49:42.318Z,19.10
2018-10-09T17:52:16.969Z,19.37
2018-10-09T17:54:47.064Z,21.27
2018-10-09T17:57:17.523Z,19.47
2018-10-09T17:59:47.270Z,21.00
2018-10-09T18:02:23.818Z,19.00
2018-10-09T18:04:53.512Z,21.70
2018-10-09T18:07:25.051Z,19.73
2018-10-09T18:09:56.882Z,19.47
2018-10-09T18:12:30.342Z,19.13
2018-10-09T18:15:04.001Z,20.33
2018-10-09T18:17:33.785Z,19.40
2018-10-09T18:20:03.471Z,17.63
2018-10-09T18:22:33.395Z,22.37
2018-10-09T18:25:03.566Z,19.00
2018-10-09T18:27:34.153Z,21.17
2018-10-09T18:30:05.848Z,22.83
2018-10-09T18:32:38.173Z,21.77
2018-10-09T18:35:13.828Z,26.90
2018-10-09T18:37:44.986Z,23.20
2018-10-09T18:40:14.806Z,22.37
2018-10-09T18:42:46.597Z,21.50
2018-10-09T18:45:35.225Z,19.30
2018-10-09T18:48:05.715Z,18.97
2018-10-09T18:50:37.319Z,20.37
2018-10-09T18:53:07.051Z,19.20
2018-10-09T18:55:37.272Z,23.33
2018-10-09T18:58:08.022Z,24.00
2018-10-09T19:00:37.864Z,22.30
2018-10-09T19:03:10.221Z,23.10
2018-10-09T19:05:39.885Z,20.23
2018-10-09T19:08:09.690Z,23.63
2018-10-09T19:10:41.815Z,21.20
2018-10-09T19:13:11.555Z,19.57
2018-10-09T19:15:41.707Z,20.57
2018-10-09T19:18:13.075Z,23.30
2018-10-09T19:20:46.882Z,21.43
2018-10-09T19:23:19.042Z,22.40
2018-10-09T19:25:48.860Z,20.33
2018-10-09T19:28:25.779Z,23.13
2018-10-09T19:30:57.981Z,24.93
2018-10-09T19:33:30.003Z,28.83
2018-10-09T19:36:10.461Z,22.90
2018-10-09T19:38:40.149Z,25.93
2018-10-09T19:41:09.879Z,27.97
2018-10-09T19:43:41.770Z,31.50
2018-10-09T19:46:12.302Z,31.87
2018-10-09T19:48:42.431Z,30.73
2018-10-09T19:51:12.122Z,26.70
2018-10-09T19:53:41.755Z,26.80
2018-10-09T19:56:11.487Z,26.37
2018-10-09T19:58:41.101Z,24.90
2018-10-09T20:01:20.437Z,24.60
2018-10-09T20:03:54.404Z,24.33
2018-10-09T20:06:28.828Z,26.20
2018-10-09T20:09:02.622Z,23.17
2018-10-09T20:11:32.260Z,27.90
2018-10-09T20:14:01.581Z,25.43
2018-10-09T20:16:42.660Z,23.80
2018-10-09T20:19:19.033Z,24.47
2018-10-09T20:21:51.085Z,24.47
2018-10-09T20:24:25.495Z,25.87
2018-10-09T20:26:55.172Z,29.67
2018-10-09T20:29:31.489Z,34.53
2018-10-09T20:32:03.620Z,28.90
2018-10-09T20:34:38.540Z,28.27
2018-10-09T20:37:15.066Z,32.63
2018-10-09T20:39:45.541Z,31.80
2018-10-09T20:42:19.202Z,29.17
2018-10-09T20:44:48.765Z,29.00
2018-10-09T20:47:30.698Z,30.27
2018-10-09T20:50:04.128Z,30.70
2018-10-09T20:52:34.327Z,31.63
2018-10-09T20:55:06.008Z,34.53
2018-10-09T20:57:44.016Z,32.07
2018-10-09T21:00:14.888Z,32.07
2018-10-09T21:02:47.467Z,29.93
2018-10-09T21:05:17.547Z,31.87
2018-10-09T21:07:48.770Z,29.63
2018-10-09T21:10:19.102Z,28.50
2018-10-09T21:12:49.040Z,26.53
2018-10-09T21:15:19.870Z,29.23
2018-10-09T21:17:52.063Z,27.40
2018-10-09T21:20:21.621Z,32.70
2018-10-09T21:22:51.377Z,29.27
2018-10-09T21:25:22.282Z,30.70
2018-10-09T21:27:55.710Z,32.73
2018-10-09T21:30:25.850Z,34.00
2018-10-09T21:32:57.323Z,36.20
2018-10-09T21:35:27.874Z,34.90
2018-10-09T21:38:00.170Z,38.40
2018-10-09T21:40:29.722Z,32.83
2018-10-09T21:42:59.146Z,32.83
2018-10-09T21:45:38.491Z,34.87
2018-10-09T21:48:08.047Z,32.63
2018-10-09T21:50:37.934Z,32.70
2018-10-09T21:53:25.318Z,34.73
2018-10-09T21:55:54.996Z,32.90
2018-10-09T21:58:26.924Z,33.80
2018-10-09T22:01:02.781Z,32.70
2018-10-09T22:03:39.458Z,32.97
2018-10-09T22:06:09.689Z,31.83
2018-10-09T22:08:39.206Z,31.57
2018-10-09T22:11:09.268Z,32.23
2018-10-09T22:13:45.202Z,34.63
2018-10-09T22:16:16.209Z,37.23
2018-10-09T22:18:45.797Z,35.37
2018-10-09T22:21:16.029Z,35.97
2018-10-09T22:23:46.714Z,36.63
2018-10-09T22:26:16.422Z,33.03
2018-10-09T22:28:46.019Z,34.90
2018-10-09T22:31:15.457Z,33.13
2018-10-09T22:33:44.811Z,35.43
2018-10-09T22:36:14.225Z,37.40
2018-10-09T22:38:44.157Z,39.80
2018-10-09T22:41:13.593Z,33.40
2018-10-09T22:43:43.001Z,37.63
2018-10-09T22:46:12.698Z,32.73
2018-10-09T22:48:42.498Z,35.87
2018-10-09T22:51:11.819Z,35.07
2018-10-09T22:53:41.515Z,35.83
2018-10-09T22:56:10.841Z,32.23
2018-10-09T22:58:41.678Z,35.50
2018-10-09T23:01:11.166Z,32.83
2018-10-09T23:03:40.596Z,32.47
2018-10-09T23:06:10.121Z,34.30
2018-10-09T23:08:39.601Z,30.73
2018-10-09T23:11:09.556Z,31.13
2018-10-09T23:13:39.009Z,35.63
2018-10-09T23:16:08.973Z,34.77
2018-10-09T23:18:38.450Z,35.37
2018-10-09T23:21:08.034Z,37.87
2018-10-09T23:23:37.389Z,36.13
2018-10-09T23:26:06.948Z,32.43
2018-10-09T23:28:36.397Z,39.83
2018-10-09T23:31:12.172Z,36.23
2018-10-09T23:33:41.699Z,37.73
2018-10-09T23:36:11.121Z,37.53
2018-10-09T23:38:40.458Z,38.70
2018-10-09T23:41:09.776Z,38.77
2018-10-09T23:43:39.125Z,35.63
2018-10-09T23:46:12.486Z,37.33
2018-10-09T23:48:41.822Z,41.07
2018-10-09T23:51:11.154Z,38.70
2018-10-09T23:53:40.540Z,40.33
2018-10-09T23:56:09.866Z,33.77
2018-10-09T23:58:39.344Z,36.03
